sensor_id;sensor_type;location;lat;lon;timestamp;P1;durP1;ratioP1;P2;durP2;ratioP2
10134;SDS011;5107;48.850;8.924;2023-10-19T00:00:44;5.80;;;5.07;;
10134;SDS011;5107;48.850;8.924;2023-10-19T00:03:14;6.40;;;4.77;;
10134;SDS011;5107;48.850;8.924;2023-10-19T00:05:40;5.40;;;4.90;;
10134;SDS011;5107;48.850;8.924;2023-10-19T00:08:06;5.63;;;4.33;;
10134;SDS011;5107;48.850;8.924;2023-10-19T00:10:53;5.23;;;3.77;;
10134;SDS011;5107;48.850;8.924;2023-10-19T00:13:33;4.63;;;4.20;;
10134;SDS011;5107;48.850;8.924;2023-10-19T00:16:03;5.37;;;3.83;;
10134;SDS011;5107;48.850;8.924;2023-10-19T00:18:48;6.10;;;4.07;;
10134;SDS011;5107;48.850;8.924;2023-10-19T00:21:18;5.10;;;4.30;;
10134;SDS011;5107;48.850;8.924;2023-10-19T00:23:56;6.67;;;4.80;;
10134;SDS011;5107;48.850;8.924;2023-10-19T00:26:26;5.23;;;4.73;;
10134;SDS011;5107;48.850;8.924;2023-10-19T00:28:54;5.73;;;5.13;;
10134;SDS011;5107;48.850;8.924;2023-10-19T00:31:25;5.50;;;4.90;;
10134;SDS011;5107;48.850;8.924;2023-10-19T00:33:58;6.30;;;5.13;;
10134;SDS011;5107;48.850;8.924;2023-10-19T00:36:26;5.87;;;4.77;;
10134;SDS011;5107;48.850;8.924;2023-10-19T00:38:51;5.67;;;5.07;;
10134;SDS011;5107;48.850;8.924;2023-10-19T00:41:25;7.60;;;5.10;;
10134;SDS011;5107;48.850;8.924;2023-10-19T00:43:57;5.43;;;4.90;;
10134;SDS011;5107;48.850;8.924;2023-10-19T00:46:35;6.10;;;5.23;;
10134;SDS011;5107;48.850;8.924;2023-10-19T00:49:07;6.10;;;3.57;;
10134;SDS011;5107;48.850;8.924;2023-10-19T00:54:19;5.53;;;4.27;;
10134;SDS011;5107;48.850;8.924;2023-10-19T00:57:23;5.23;;;4.53;;
10134;SDS011;5107;48.850;8.924;2023-10-19T00:59:59;4.53;;;4.10;;
10134;SDS011;5107;48.850;8.924;2023-10-19T01:02:46;6.20;;;4.90;;
10134;SDS011;5107;48.850;8.924;2023-10-19T01:05:11;6.63;;;4.30;;
10134;SDS011;5107;48.850;8.924;2023-10-19T01:07:40;6.30;;;4.80;;
10134;SDS011;5107;48.850;8.924;2023-10-19T01:10:06;6.17;;;4.40;;
10134;SDS011;5107;48.850;8.924;2023-10-19T01:12:45;5.33;;;4.70;;
10134;SDS011;5107;48.850;8.924;2023-10-19T01:17:51;5.00;;;4.13;;
10134;SDS011;5107;48.850;8.924;2023-10-19T01:20:24;5.77;;;4.30;;
10134;SDS011;5107;48.850;8.924;2023-10-19T01:22:55;6.00;;;3.60;;
10134;SDS011;5107;48.850;8.924;2023-10-19T01:25:51;5.40;;;3.90;;
10134;SDS011;5107;48.850;8.924;2023-10-19T01:28:30;5.73;;;3.80;;
10134;SDS011;5107;48.850;8.924;2023-10-19T01:31:09;5.07;;;3.97;;
10134;SDS011;5107;48.850;8.924;2023-10-19T01:33:47;5.77;;;3.80;;
10134;SDS011;5107;48.850;8.924;2023-10-19T01:36:14;4.57;;;3.30;;
10134;SDS011;5107;48.850;8.924;2023-10-19T01:38:40;4.00;;;3.50;;
10134;SDS011;5107;48.850;8.924;2023-10-19T01:41:07;4.83;;;3.60;;
10134;SDS011;5107;48.850;8.924;2023-10-19T01:43:42;6.20;;;4.13;;
10134;SDS011;5107;48.850;8.924;2023-10-19T01:46:08;4.90;;;3.80;;
10134;SDS011;5107;48.850;8.924;2023-10-19T01:48:38;5.10;;;3.77;;
10134;SDS011;5107;48.850;8.924;2023-10-19T01:51:06;4.27;;;3.87;;
10134;SDS011;5107;48.850;8.924;2023-10-19T01:53:35;4.13;;;3.73;;
10134;SDS011;5107;48.850;8.924;2023-10-19T01:56:04;5.60;;;3.67;;
10134;SDS011;5107;48.850;8.924;2023-10-19T01:58:30;5.43;;;3.50;;
10134;SDS011;5107;48.850;8.924;2023-10-19T02:01:01;5.77;;;3.80;;
10134;SDS011;5107;48.850;8.924;2023-10-19T02:03:31;3.57;;;3.03;;
10134;SDS011;5107;48.850;8.924;2023-10-19T02:06:00;4.17;;;3.50;;
10134;SDS011;5107;48.850;8.924;2023-10-19T02:08:35;6.90;;;3.73;;
10134;SDS011;5107;48.850;8.924;2023-10-19T02:11:03;6.17;;;3.40;;
10134;SDS011;5107;48.850;8.924;2023-10-19T02:13:38;4.70;;;3.30;;
10134;SDS011;5107;48.850;8.924;2023-10-19T02:16:04;4.60;;;3.10;;
10134;SDS011;5107;48.850;8.924;2023-10-19T02:18:31;5.50;;;3.90;;
10134;SDS011;5107;48.850;8.924;2023-10-19T02:20:59;3.80;;;3.37;;
10134;SDS011;5107;48.850;8.924;2023-10-19T02:23:27;4.47;;;3.37;;
10134;SDS011;5107;48.850;8.924;2023-10-19T02:25:52;3.90;;;3.50;;
10134;SDS011;5107;48.850;8.924;2023-10-19T02:28:18;4.43;;;3.27;;
10134;SDS011;5107;48.850;8.924;2023-10-19T02:30:50;6.10;;;3.50;;
10134;SDS011;5107;48.850;8.924;2023-10-19T02:33:16;4.77;;;3.50;;
10134;SDS011;5107;48.850;8.924;2023-10-19T02:35:41;4.27;;;3.47;;
10134;SDS011;5107;48.850;8.924;2023-10-19T02:38:06;4.73;;;3.30;;
10134;SDS011;5107;48.850;8.924;2023-10-19T02:40:32;5.03;;;3.40;;
10134;SDS011;5107;48.850;8.924;2023-10-19T02:42:59;6.40;;;4.00;;
10134;SDS011;5107;48.850;8.924;2023-10-19T02:45:27;5.33;;;3.27;;
10134;SDS011;5107;48.850;8.924;2023-10-19T02:47:56;5.90;;;3.60;;
10134;SDS011;5107;48.850;8.924;2023-10-19T02:50:23;4.83;;;3.30;;
10134;SDS011;5107;48.850;8.924;2023-10-19T02:52:51;3.80;;;3.00;;
10134;SDS011;5107;48.850;8.924;2023-10-19T02:55:18;6.60;;;3.60;;
10134;SDS011;5107;48.850;8.924;2023-10-19T02:57:44;11.10;;;5.00;;
10134;SDS011;5107;48.850;8.924;2023-10-19T03:00:11;7.30;;;4.40;;
10134;SDS011;5107;48.850;8.924;2023-10-19T03:02:39;5.70;;;3.73;;
10134;SDS011;5107;48.850;8.924;2023-10-19T03:05:05;5.03;;;3.53;;
10134;SDS011;5107;48.850;8.924;2023-10-19T03:07:39;3.40;;;3.10;;
10134;SDS011;5107;48.850;8.924;2023-10-19T03:10:11;4.00;;;3.23;;
10134;SDS011;5107;48.850;8.924;2023-10-19T03:12:59;5.13;;;3.47;;
10134;SDS011;5107;48.850;8.924;2023-10-19T03:15:25;4.63;;;3.60;;
10134;SDS011;5107;48.850;8.924;2023-10-19T03:17:52;3.83;;;3.30;;
10134;SDS011;5107;48.850;8.924;2023-10-19T03:20:17;7.70;;;3.63;;
10134;SDS011;5107;48.850;8.924;2023-10-19T03:22:48;6.27;;;4.10;;
10134;SDS011;5107;48.850;8.924;2023-10-19T03:25:13;4.33;;;3.93;;
10134;SDS011;5107;48.850;8.924;2023-10-19T03:27:57;4.47;;;3.47;;
10134;SDS011;5107;48.850;8.924;2023-10-19T03:30:30;5.53;;;3.47;;
10134;SDS011;5107;48.850;8.924;2023-10-19T03:32:56;6.40;;;3.80;;
10134;SDS011;5107;48.850;8.924;2023-10-19T03:35:24;4.80;;;3.70;;
10134;SDS011;5107;48.850;8.924;2023-10-19T03:37:49;5.60;;;3.90;;
10134;SDS011;5107;48.850;8.924;2023-10-19T03:40:16;4.63;;;4.20;;
10134;SDS011;5107;48.850;8.924;2023-10-19T03:42:50;5.13;;;4.33;;
10134;SDS011;5107;48.850;8.924;2023-10-19T03:45:19;6.23;;;4.50;;
10134;SDS011;5107;48.850;8.924;2023-10-19T03:47:47;6.57;;;4.40;;
10134;SDS011;5107;48.850;8.924;2023-10-19T03:50:14;3.90;;;3.60;;
10134;SDS011;5107;48.850;8.924;2023-10-19T03:52:45;6.57;;;4.57;;
10134;SDS011;5107;48.850;8.924;2023-10-19T03:55:10;5.80;;;4.73;;
10134;SDS011;5107;48.850;8.924;2023-10-19T03:57:44;6.57;;;3.97;;
10134;SDS011;5107;48.850;8.924;2023-10-19T04:00:15;5.47;;;4.03;;
10134;SDS011;5107;48.850;8.924;2023-10-19T04:02:43;4.27;;;3.87;;
10134;SDS011;5107;48.850;8.924;2023-10-19T04:05:08;7.07;;;4.30;;
10134;SDS011;5107;48.850;8.924;2023-10-19T04:07:45;6.27;;;4.00;;
10134;SDS011;5107;48.850;8.924;2023-10-19T04:10:11;5.43;;;4.10;;
10134;SDS011;5107;48.850;8.924;2023-10-19T04:12:54;5.63;;;4.17;;
10134;SDS011;5107;48.850;8.924;2023-10-19T04:15:20;6.43;;;3.80;;
10134;SDS011;5107;48.850;8.924;2023-10-19T04:17:46;5.57;;;3.90;;
10134;SDS011;5107;48.850;8.924;2023-10-19T04:20:17;4.73;;;3.43;;
10134;SDS011;5107;48.850;8.924;2023-10-19T04:22:47;3.47;;;3.10;;
10134;SDS011;5107;48.850;8.924;2023-10-19T04:25:14;4.00;;;3.60;;
10134;SDS011;5107;48.850;8.924;2023-10-19T04:27:50;4.67;;;3.50;;
10134;SDS011;5107;48.850;8.924;2023-10-19T04:30:16;5.27;;;3.70;;
10134;SDS011;5107;48.850;8.924;2023-10-19T04:32:42;4.47;;;3.70;;
10134;SDS011;5107;48.850;8.924;2023-10-19T04:35:07;6.27;;;4.00;;
10134;SDS011;5107;48.850;8.924;2023-10-19T04:37:34;6.03;;;3.83;;
10134;SDS011;5107;48.850;8.924;2023-10-19T04:40:00;4.70;;;3.30;;
10134;SDS011;5107;48.850;8.924;2023-10-19T04:42:26;4.87;;;3.13;;
10134;SDS011;5107;48.850;8.924;2023-10-19T04:44:52;3.90;;;3.50;;
10134;SDS011;5107;48.850;8.924;2023-10-19T04:47:19;7.97;;;4.37;;
10134;SDS011;5107;48.850;8.924;2023-10-19T04:49:44;6.00;;;3.53;;
10134;SDS011;5107;48.850;8.924;2023-10-19T04:52:10;3.27;;;2.97;;
10134;SDS011;5107;48.850;8.924;2023-10-19T04:54:35;4.70;;;3.77;;
10134;SDS011;5107;48.850;8.924;2023-10-19T04:57:02;5.53;;;3.80;;
10134;SDS011;5107;48.850;8.924;2023-10-19T04:59:28;5.20;;;3.50;;
10134;SDS011;5107;48.850;8.924;2023-10-19T05:01:53;6.87;;;3.77;;
10134;SDS011;5107;48.850;8.924;2023-10-19T05:04:19;5.43;;;4.07;;
10134;SDS011;5107;48.850;8.924;2023-10-19T05:06:45;4.70;;;4.20;;
10134;SDS011;5107;48.850;8.924;2023-10-19T05:09:10;5.23;;;3.77;;
10134;SDS011;5107;48.850;8.924;2023-10-19T05:11:37;4.70;;;4.00;;
10134;SDS011;5107;48.850;8.924;2023-10-19T05:14:03;4.83;;;3.87;;
10134;SDS011;5107;48.850;8.924;2023-10-19T05:16:30;4.07;;;3.40;;
10134;SDS011;5107;48.850;8.924;2023-10-19T05:18:56;3.90;;;3.03;;
10134;SDS011;5107;48.850;8.924;2023-10-19T05:21:21;3.70;;;3.20;;
10134;SDS011;5107;48.850;8.924;2023-10-19T05:23:46;4.37;;;2.97;;
10134;SDS011;5107;48.850;8.924;2023-10-19T05:26:12;4.83;;;3.00;;
10134;SDS011;5107;48.850;8.924;2023-10-19T05:28:39;3.73;;;2.90;;
10134;SDS011;5107;48.850;8.924;2023-10-19T05:31:07;7.93;;;6.00;;
10134;SDS011;5107;48.850;8.924;2023-10-19T05:33:33;10.00;;;8.43;;
10134;SDS011;5107;48.850;8.924;2023-10-19T05:35:58;21.70;;;17.57;;
10134;SDS011;5107;48.850;8.924;2023-10-19T05:38:26;7.77;;;6.10;;
10134;SDS011;5107;48.850;8.924;2023-10-19T05:40:52;4.17;;;3.37;;
10134;SDS011;5107;48.850;8.924;2023-10-19T05:43:17;3.70;;;2.90;;
10134;SDS011;5107;48.850;8.924;2023-10-19T05:45:43;4.77;;;3.20;;
10134;SDS011;5107;48.850;8.924;2023-10-19T05:48:11;3.97;;;3.20;;
10134;SDS011;5107;48.850;8.924;2023-10-19T05:50:36;2.90;;;2.70;;
10134;SDS011;5107;48.850;8.924;2023-10-19T05:53:02;5.73;;;3.17;;
10134;SDS011;5107;48.850;8.924;2023-10-19T05:55:28;4.87;;;3.20;;
10134;SDS011;5107;48.850;8.924;2023-10-19T05:57:54;4.83;;;3.30;;
10134;SDS011;5107;48.850;8.924;2023-10-19T06:00:20;5.10;;;3.13;;
10134;SDS011;5107;48.850;8.924;2023-10-19T06:02:46;4.43;;;3.83;;
10134;SDS011;5107;48.850;8.924;2023-10-19T06:05:17;7.03;;;5.60;;
10134;SDS011;5107;48.850;8.924;2023-10-19T06:07:44;7.63;;;6.93;;
10134;SDS011;5107;48.850;8.924;2023-10-19T06:10:13;6.60;;;4.57;;
10134;SDS011;5107;48.850;8.924;2023-10-19T06:12:43;4.30;;;3.93;;
10134;SDS011;5107;48.850;8.924;2023-10-19T06:15:10;8.23;;;6.33;;
10134;SDS011;5107;48.850;8.924;2023-10-19T06:17:36;8.63;;;5.77;;
10134;SDS011;5107;48.850;8.924;2023-10-19T06:20:03;6.33;;;5.77;;
10134;SDS011;5107;48.850;8.924;2023-10-19T06:22:29;7.80;;;5.63;;
10134;SDS011;5107;48.850;8.924;2023-10-19T06:24:55;8.43;;;4.80;;
10134;SDS011;5107;48.850;8.924;2023-10-19T06:27:20;6.43;;;5.23;;
10134;SDS011;5107;48.850;8.924;2023-10-19T06:29:46;5.37;;;4.80;;
10134;SDS011;5107;48.850;8.924;2023-10-19T06:32:11;4.73;;;4.33;;
10134;SDS011;5107;48.850;8.924;2023-10-19T06:34:38;5.13;;;4.50;;
10134;SDS011;5107;48.850;8.924;2023-10-19T06:37:03;7.23;;;3.73;;
10134;SDS011;5107;48.850;8.924;2023-10-19T06:39:32;4.23;;;3.73;;
10134;SDS011;5107;48.850;8.924;2023-10-19T06:41:57;6.20;;;4.20;;
10134;SDS011;5107;48.850;8.924;2023-10-19T06:44:22;4.87;;;4.37;;
10134;SDS011;5107;48.850;8.924;2023-10-19T06:46:48;5.57;;;4.43;;
10134;SDS011;5107;48.850;8.924;2023-10-19T06:49:13;6.53;;;5.03;;
10134;SDS011;5107;48.850;8.924;2023-10-19T06:51:40;6.13;;;4.57;;
10134;SDS011;5107;48.850;8.924;2023-10-19T06:54:05;5.93;;;4.30;;
10134;SDS011;5107;48.850;8.924;2023-10-19T06:56:33;5.30;;;4.53;;
10134;SDS011;5107;48.850;8.924;2023-10-19T06:59:01;5.87;;;3.97;;
10134;SDS011;5107;48.850;8.924;2023-10-19T07:01:30;7.73;;;4.23;;
10134;SDS011;5107;48.850;8.924;2023-10-19T07:03:57;5.23;;;4.03;;
10134;SDS011;5107;48.850;8.924;2023-10-19T07:06:23;5.47;;;4.60;;
10134;SDS011;5107;48.850;8.924;2023-10-19T07:08:49;5.27;;;3.87;;
10134;SDS011;5107;48.850;8.924;2023-10-19T07:11:14;4.23;;;3.67;;
10134;SDS011;5107;48.850;8.924;2023-10-19T07:13:39;5.13;;;3.23;;
10134;SDS011;5107;48.850;8.924;2023-10-19T07:16:05;4.37;;;3.43;;
10134;SDS011;5107;48.850;8.924;2023-10-19T07:18:31;4.87;;;3.30;;
10134;SDS011;5107;48.850;8.924;2023-10-19T07:20:56;6.03;;;3.50;;
10134;SDS011;5107;48.850;8.924;2023-10-19T07:23:28;4.80;;;3.80;;
10134;SDS011;5107;48.850;8.924;2023-10-19T07:25:54;3.93;;;3.33;;
10134;SDS011;5107;48.850;8.924;2023-10-19T07:28:21;4.53;;;3.57;;
10134;SDS011;5107;48.850;8.924;2023-10-19T07:30:47;4.23;;;3.47;;
10134;SDS011;5107;48.850;8.924;2023-10-19T07:33:14;4.07;;;3.23;;
10134;SDS011;5107;48.850;8.924;2023-10-19T07:35:43;5.17;;;3.90;;
10134;SDS011;5107;48.850;8.924;2023-10-19T07:38:12;3.67;;;3.27;;
10134;SDS011;5107;48.850;8.924;2023-10-19T07:40:38;4.47;;;3.17;;
10134;SDS011;5107;48.850;8.924;2023-10-19T07:43:04;5.93;;;3.40;;
10134;SDS011;5107;48.850;8.924;2023-10-19T07:45:29;4.47;;;3.43;;
10134;SDS011;5107;48.850;8.924;2023-10-19T07:47:56;4.20;;;3.10;;
10134;SDS011;5107;48.850;8.924;2023-10-19T07:50:22;4.97;;;3.53;;
10134;SDS011;5107;48.850;8.924;2023-10-19T07:52:51;4.93;;;3.63;;
10134;SDS011;5107;48.850;8.924;2023-10-19T07:55:19;4.33;;;3.50;;
10134;SDS011;5107;48.850;8.924;2023-10-19T07:57:49;4.47;;;3.40;;
10134;SDS011;5107;48.850;8.924;2023-10-19T08:00:15;4.83;;;3.60;;
10134;SDS011;5107;48.850;8.924;2023-10-19T08:02:42;5.50;;;3.70;;
10134;SDS011;5107;48.850;8.924;2023-10-19T08:05:10;5.40;;;4.90;;
10134;SDS011;5107;48.850;8.924;2023-10-19T08:07:36;5.73;;;5.03;;
10134;SDS011;5107;48.850;8.924;2023-10-19T08:10:04;4.73;;;4.23;;
10134;SDS011;5107;48.850;8.924;2023-10-19T08:12:31;5.43;;;3.90;;
10134;SDS011;5107;48.850;8.924;2023-10-19T08:14:58;6.13;;;4.60;;
10134;SDS011;5107;48.850;8.924;2023-10-19T08:17:24;4.53;;;3.90;;
10134;SDS011;5107;48.850;8.924;2023-10-19T08:19:49;5.03;;;3.80;;
10134;SDS011;5107;48.850;8.924;2023-10-19T08:22:15;4.27;;;3.23;;
10134;SDS011;5107;48.850;8.924;2023-10-19T08:24:41;4.90;;;3.23;;
10134;SDS011;5107;48.850;8.924;2023-10-19T08:27:10;7.23;;;3.00;;
10134;SDS011;5107;48.850;8.924;2023-10-19T08:29:36;9.33;;;2.83;;
10134;SDS011;5107;48.850;8.924;2023-10-19T08:32:02;4.00;;;2.50;;
10134;SDS011;5107;48.850;8.924;2023-10-19T08:34:28;3.10;;;2.50;;
10134;SDS011;5107;48.850;8.924;2023-10-19T08:36:54;3.37;;;2.43;;
10134;SDS011;5107;48.850;8.924;2023-10-19T08:39:21;3.10;;;2.80;;
10134;SDS011;5107;48.850;8.924;2023-10-19T08:41:49;3.50;;;2.30;;
10134;SDS011;5107;48.850;8.924;2023-10-19T08:44:18;3.50;;;2.30;;
10134;SDS011;5107;48.850;8.924;2023-10-19T08:46:44;3.80;;;2.50;;
10134;SDS011;5107;48.850;8.924;2023-10-19T08:49:15;5.23;;;2.40;;
10134;SDS011;5107;48.850;8.924;2023-10-19T08:51:44;3.37;;;2.37;;
10134;SDS011;5107;48.850;8.924;2023-10-19T08:54:14;2.90;;;2.20;;
10134;SDS011;5107;48.850;8.924;2023-10-19T08:56:40;5.37;;;2.47;;
10134;SDS011;5107;48.850;8.924;2023-10-19T08:59:07;2.40;;;2.20;;
10134;SDS011;5107;48.850;8.924;2023-10-19T09:01:33;3.60;;;2.40;;
10134;SDS011;5107;48.850;8.924;2023-10-19T09:04:00;6.07;;;2.20;;
10134;SDS011;5107;48.850;8.924;2023-10-19T09:06:26;4.83;;;2.60;;
10134;SDS011;5107;48.850;8.924;2023-10-19T09:08:54;3.20;;;2.40;;
10134;SDS011;5107;48.850;8.924;2023-10-19T09:11:20;3.53;;;2.23;;
10134;SDS011;5107;48.850;8.924;2023-10-19T09:13:50;4.50;;;2.50;;
10134;SDS011;5107;48.850;8.924;2023-10-19T09:16:18;5.17;;;2.33;;
10134;SDS011;5107;48.850;8.924;2023-10-19T09:18:47;3.17;;;2.13;;
10134;SDS011;5107;48.850;8.924;2023-10-19T09:21:17;3.60;;;2.13;;
10134;SDS011;5107;48.850;8.924;2023-10-19T09:23:49;2.47;;;2.20;;
10134;SDS011;5107;48.850;8.924;2023-10-19T09:26:15;2.43;;;2.10;;
10134;SDS011;5107;48.850;8.924;2023-10-19T09:28:41;3.17;;;2.53;;
10134;SDS011;5107;48.850;8.924;2023-10-19T09:31:07;4.03;;;2.63;;
10134;SDS011;5107;48.850;8.924;2023-10-19T09:33:36;4.03;;;2.30;;
10134;SDS011;5107;48.850;8.924;2023-10-19T09:36:05;2.80;;;2.20;;
10134;SDS011;5107;48.850;8.924;2023-10-19T09:38:37;4.87;;;2.23;;
10134;SDS011;5107;48.850;8.924;2023-10-19T09:41:03;2.80;;;2.00;;
10134;SDS011;5107;48.850;8.924;2023-10-19T09:43:33;3.63;;;2.37;;
10134;SDS011;5107;48.850;8.924;2023-10-19T09:46:06;3.03;;;2.30;;
10134;SDS011;5107;48.850;8.924;2023-10-19T09:51:07;3.60;;;2.27;;
10134;SDS011;5107;48.850;8.924;2023-10-19T09:53:34;2.83;;;2.20;;
10134;SDS011;5107;48.850;8.924;2023-10-19T09:56:01;2.67;;;2.03;;
10134;SDS011;5107;48.850;8.924;2023-10-19T09:58:35;2.27;;;2.00;;
10134;SDS011;5107;48.850;8.924;2023-10-19T10:01:05;2.30;;;2.00;;
10134;SDS011;5107;48.850;8.924;2023-10-19T10:03:43;4.90;;;2.10;;
10134;SDS011;5107;48.850;8.924;2023-10-19T10:06:09;2.97;;;1.90;;
10134;SDS011;5107;48.850;8.924;2023-10-19T10:08:37;2.50;;;2.00;;
10134;SDS011;5107;48.850;8.924;2023-10-19T10:11:23;2.40;;;2.20;;
10134;SDS011;5107;48.850;8.924;2023-10-19T10:13:54;2.73;;;2.27;;
10134;SDS011;5107;48.850;8.924;2023-10-19T10:16:24;3.77;;;2.30;;
10134;SDS011;5107;48.850;8.924;2023-10-19T10:18:51;4.10;;;2.70;;
10134;SDS011;5107;48.850;8.924;2023-10-19T10:21:21;2.67;;;2.47;;
10134;SDS011;5107;48.850;8.924;2023-10-19T10:23:55;6.17;;;2.63;;
10134;SDS011;5107;48.850;8.924;2023-10-19T10:26:24;3.60;;;2.27;;
10134;SDS011;5107;48.850;8.924;2023-10-19T10:31:48;6.30;;;4.00;;
10134;SDS011;5107;48.850;8.924;2023-10-19T10:37:02;3.10;;;2.50;;
10134;SDS011;5107;48.850;8.924;2023-10-19T10:39:30;2.60;;;2.40;;
10134;SDS011;5107;48.850;8.924;2023-10-19T10:42:00;2.70;;;2.47;;
10134;SDS011;5107;48.850;8.924;2023-10-19T10:44:41;3.17;;;2.57;;
10134;SDS011;5107;48.850;8.924;2023-10-19T10:47:12;4.40;;;2.50;;
10134;SDS011;5107;48.850;8.924;2023-10-19T10:52:19;2.50;;;2.27;;
10134;SDS011;5107;48.850;8.924;2023-10-19T10:54:49;2.90;;;2.60;;
10134;SDS011;5107;48.850;8.924;2023-10-19T10:57:14;3.10;;;2.63;;
10134;SDS011;5107;48.850;8.924;2023-10-19T10:59:39;4.17;;;2.77;;
10134;SDS011;5107;48.850;8.924;2023-10-19T11:02:16;3.80;;;2.93;;
10134;SDS011;5107;48.850;8.924;2023-10-19T11:04:46;2.60;;;2.40;;
10134;SDS011;5107;48.850;8.924;2023-10-19T11:07:18;3.10;;;2.50;;
10134;SDS011;5107;48.850;8.924;2023-10-19T11:09:47;1.63;;;1.53;;
10134;SDS011;5107;48.850;8.924;2023-10-19T11:12:13;3.07;;;2.20;;
10134;SDS011;5107;48.850;8.924;2023-10-19T11:17:18;3.10;;;2.00;;
10134;SDS011;5107;48.850;8.924;2023-10-19T11:19:44;4.00;;;2.20;;
10134;SDS011;5107;48.850;8.924;2023-10-19T11:22:09;2.67;;;1.90;;
10134;SDS011;5107;48.850;8.924;2023-10-19T11:24:35;2.87;;;1.90;;
10134;SDS011;5107;48.850;8.924;2023-10-19T11:27:05;3.53;;;2.00;;
10134;SDS011;5107;48.850;8.924;2023-10-19T11:29:32;2.53;;;2.00;;
10134;SDS011;5107;48.850;8.924;2023-10-19T11:31:59;2.63;;;2.20;;
10134;SDS011;5107;48.850;8.924;2023-10-19T11:34:25;3.57;;;1.90;;
10134;SDS011;5107;48.850;8.924;2023-10-19T11:36:53;2.43;;;2.20;;
10134;SDS011;5107;48.850;8.924;2023-10-19T11:39:22;2.53;;;2.17;;
10134;SDS011;5107;48.850;8.924;2023-10-19T11:41:48;3.80;;;2.40;;
10134;SDS011;5107;48.850;8.924;2023-10-19T11:44:14;4.50;;;2.77;;
10134;SDS011;5107;48.850;8.924;2023-10-19T11:46:39;4.43;;;3.00;;
10134;SDS011;5107;48.850;8.924;2023-10-19T11:49:05;3.07;;;2.20;;
10134;SDS011;5107;48.850;8.924;2023-10-19T11:51:31;2.80;;;2.43;;
10134;SDS011;5107;48.850;8.924;2023-10-19T11:53:56;3.53;;;2.10;;
10134;SDS011;5107;48.850;8.924;2023-10-19T11:56:22;2.47;;;1.97;;
10134;SDS011;5107;48.850;8.924;2023-10-19T11:58:50;2.37;;;1.90;;
10134;SDS011;5107;48.850;8.924;2023-10-19T12:01:15;3.00;;;2.00;;
10134;SDS011;5107;48.850;8.924;2023-10-19T12:03:43;2.87;;;2.20;;
10134;SDS011;5107;48.850;8.924;2023-10-19T12:06:11;2.30;;;2.10;;
10134;SDS011;5107;48.850;8.924;2023-10-19T12:08:38;3.23;;;2.20;;
10134;SDS011;5107;48.850;8.924;2023-10-19T12:11:05;3.23;;;2.50;;
10134;SDS011;5107;48.850;8.924;2023-10-19T12:13:40;2.90;;;2.33;;
10134;SDS011;5107;48.850;8.924;2023-10-19T12:16:08;4.70;;;2.53;;
10134;SDS011;5107;48.850;8.924;2023-10-19T12:18:37;3.80;;;3.10;;
10134;SDS011;5107;48.850;8.924;2023-10-19T12:21:03;3.70;;;3.40;;
10134;SDS011;5107;48.850;8.924;2023-10-19T12:23:32;3.20;;;2.77;;
10134;SDS011;5107;48.850;8.924;2023-10-19T12:25:58;3.00;;;2.70;;
10134;SDS011;5107;48.850;8.924;2023-10-19T12:28:27;4.50;;;2.70;;
10134;SDS011;5107;48.850;8.924;2023-10-19T12:30:53;4.90;;;3.10;;
10134;SDS011;5107;48.850;8.924;2023-10-19T12:33:18;3.57;;;3.07;;
10134;SDS011;5107;48.850;8.924;2023-10-19T12:35:44;3.43;;;2.40;;
10134;SDS011;5107;48.850;8.924;2023-10-19T12:38:22;2.50;;;2.30;;
10134;SDS011;5107;48.850;8.924;2023-10-19T12:40:48;4.13;;;2.60;;
10134;SDS011;5107;48.850;8.924;2023-10-19T12:43:16;4.80;;;3.30;;
10134;SDS011;5107;48.850;8.924;2023-10-19T12:45:44;4.30;;;2.73;;
10134;SDS011;5107;48.850;8.924;2023-10-19T12:48:15;2.73;;;2.50;;
10134;SDS011;5107;48.850;8.924;2023-10-19T12:50:41;2.97;;;2.47;;
10134;SDS011;5107;48.850;8.924;2023-10-19T12:53:07;7.40;;;4.33;;
10134;SDS011;5107;48.850;8.924;2023-10-19T12:55:33;6.73;;;4.70;;
10134;SDS011;5107;48.850;8.924;2023-10-19T12:57:59;4.13;;;3.70;;
10134;SDS011;5107;48.850;8.924;2023-10-19T13:00:32;8.27;;;5.30;;
10134;SDS011;5107;48.850;8.924;2023-10-19T13:03:04;6.80;;;4.50;;
10134;SDS011;5107;48.850;8.924;2023-10-19T13:05:36;7.17;;;4.43;;
10134;SDS011;5107;48.850;8.924;2023-10-19T13:08:04;6.43;;;4.00;;
10134;SDS011;5107;48.850;8.924;2023-10-19T13:10:30;4.93;;;3.60;;
10134;SDS011;5107;48.850;8.924;2023-10-19T13:13:08;8.37;;;4.43;;
10134;SDS011;5107;48.850;8.924;2023-10-19T13:15:38;5.33;;;3.80;;
10134;SDS011;5107;48.850;8.924;2023-10-19T13:18:05;6.00;;;3.80;;
10134;SDS011;5107;48.850;8.924;2023-10-19T13:20:32;3.73;;;2.97;;
10134;SDS011;5107;48.850;8.924;2023-10-19T13:23:02;5.37;;;3.43;;
10134;SDS011;5107;48.850;8.924;2023-10-19T13:25:32;5.50;;;3.20;;
10134;SDS011;5107;48.850;8.924;2023-10-19T13:28:07;3.80;;;3.40;;
10134;SDS011;5107;48.850;8.924;2023-10-19T13:30:37;3.50;;;3.20;;
10134;SDS011;5107;48.850;8.924;2023-10-19T13:33:07;6.33;;;4.10;;
10134;SDS011;5107;48.850;8.924;2023-10-19T13:35:36;5.47;;;4.10;;
10134;SDS011;5107;48.850;8.924;2023-10-19T13:38:06;4.10;;;3.10;;
10134;SDS011;5107;48.850;8.924;2023-10-19T13:40:38;3.33;;;2.93;;
10134;SDS011;5107;48.850;8.924;2023-10-19T13:43:04;5.63;;;4.60;;
10134;SDS011;5107;48.850;8.924;2023-10-19T13:45:31;5.27;;;4.43;;
10134;SDS011;5107;48.850;8.924;2023-10-19T13:47:58;3.80;;;3.30;;
10134;SDS011;5107;48.850;8.924;2023-10-19T13:50:24;3.47;;;3.17;;
10134;SDS011;5107;48.850;8.924;2023-10-19T13:52:51;5.20;;;3.90;;
10134;SDS011;5107;48.850;8.924;2023-10-19T13:55:18;5.43;;;4.30;;
10134;SDS011;5107;48.850;8.924;2023-10-19T13:57:45;5.57;;;3.90;;
10134;SDS011;5107;48.850;8.924;2023-10-19T14:00:11;4.20;;;3.77;;
10134;SDS011;5107;48.850;8.924;2023-10-19T14:02:55;4.53;;;3.50;;
10134;SDS011;5107;48.850;8.924;2023-10-19T14:05:22;4.40;;;3.87;;
10134;SDS011;5107;48.850;8.924;2023-10-19T14:07:49;3.67;;;3.37;;
10134;SDS011;5107;48.850;8.924;2023-10-19T14:10:16;3.47;;;3.00;;
10134;SDS011;5107;48.850;8.924;2023-10-19T14:12:44;3.87;;;3.13;;
10134;SDS011;5107;48.850;8.924;2023-10-19T14:15:12;4.07;;;3.40;;
10134;SDS011;5107;48.850;8.924;2023-10-19T14:17:38;4.93;;;3.30;;
10134;SDS011;5107;48.850;8.924;2023-10-19T14:20:04;3.97;;;2.90;;
10134;SDS011;5107;48.850;8.924;2023-10-19T14:22:30;4.50;;;3.10;;
10134;SDS011;5107;48.850;8.924;2023-10-19T14:24:59;4.30;;;2.90;;
10134;SDS011;5107;48.850;8.924;2023-10-19T14:27:25;5.50;;;3.10;;
10134;SDS011;5107;48.850;8.924;2023-10-19T14:29:50;5.00;;;3.20;;
10134;SDS011;5107;48.850;8.924;2023-10-19T14:32:15;5.40;;;3.27;;
10134;SDS011;5107;48.850;8.924;2023-10-19T14:34:40;3.17;;;2.87;;
10134;SDS011;5107;48.850;8.924;2023-10-19T14:37:07;3.40;;;3.10;;
10134;SDS011;5107;48.850;8.924;2023-10-19T14:39:33;3.83;;;3.40;;
10134;SDS011;5107;48.850;8.924;2023-10-19T14:41:58;5.10;;;3.80;;
10134;SDS011;5107;48.850;8.924;2023-10-19T14:44:24;6.00;;;5.00;;
10134;SDS011;5107;48.850;8.924;2023-10-19T14:46:49;5.80;;;4.47;;
10134;SDS011;5107;48.850;8.924;2023-10-19T14:49:14;6.33;;;5.57;;
10134;SDS011;5107;48.850;8.924;2023-10-19T14:51:39;6.50;;;5.33;;
10134;SDS011;5107;48.850;8.924;2023-10-19T14:54:06;6.00;;;5.40;;
10134;SDS011;5107;48.850;8.924;2023-10-19T14:56:32;7.20;;;5.90;;
10134;SDS011;5107;48.850;8.924;2023-10-19T14:58:57;4.70;;;4.30;;
10134;SDS011;5107;48.850;8.924;2023-10-19T15:01:23;5.07;;;4.30;;
10134;SDS011;5107;48.850;8.924;2023-10-19T15:03:50;4.23;;;3.63;;
10134;SDS011;5107;48.850;8.924;2023-10-19T15:06:16;4.03;;;3.70;;
10134;SDS011;5107;48.850;8.924;2023-10-19T15:08:43;5.13;;;4.50;;
10134;SDS011;5107;48.850;8.924;2023-10-19T15:11:09;3.97;;;3.57;;
10134;SDS011;5107;48.850;8.924;2023-10-19T15:13:34;4.50;;;3.30;;
10134;SDS011;5107;48.850;8.924;2023-10-19T15:16:08;3.57;;;3.27;;
10134;SDS011;5107;48.850;8.924;2023-10-19T15:18:33;3.70;;;3.37;;
10134;SDS011;5107;48.850;8.924;2023-10-19T15:21:10;4.57;;;3.70;;
10134;SDS011;5107;48.850;8.924;2023-10-19T15:23:38;3.83;;;3.33;;
10134;SDS011;5107;48.850;8.924;2023-10-19T15:26:05;4.07;;;3.67;;